createdAt,value
2019-04-01T00:00:24.956Z,29.20
2019-04-01T00:04:26.839Z,31.07
2019-04-01T00:08:28.747Z,26.83
2019-04-01T00:12:30.659Z,29.97
2019-04-01T00:16:32.567Z,28.60
2019-04-01T00:20:34.483Z,24.77
2019-04-01T00:24:36.377Z,32.47
2019-04-01T00:28:38.371Z,25.20
2019-04-01T00:32:40.281Z,26.33
2019-04-01T00:36:42.242Z,28.83
2019-04-01T00:40:44.154Z,29.87
2019-04-01T00:44:46.049Z,25.27
2019-04-01T00:48:47.955Z,32.90
2019-04-01T00:52:49.863Z,29.23
2019-04-01T00:56:51.779Z,29.70
2019-04-01T01:00:53.685Z,31.55
2019-04-01T01:04:55.583Z,26.25
2019-04-01T01:08:57.518Z,31.43
2019-04-01T01:12:59.423Z,23.47
2019-04-01T01:17:01.584Z,19.45
2019-04-01T01:21:03.547Z,22.30
2019-04-01T01:25:06.096Z,23.73
2019-04-01T01:29:07.998Z,28.63
2019-04-01T01:33:09.911Z,23.33
2019-04-01T01:37:11.823Z,17.60
2019-04-01T01:41:13.731Z,30.73
2019-04-01T01:45:15.694Z,26.03
2019-04-01T01:49:17.615Z,18.87
2019-04-01T01:53:19.523Z,29.30
2019-04-01T01:57:21.428Z,22.73
2019-04-01T02:01:23.350Z,25.03
2019-04-01T02:05:25.259Z,23.63
2019-04-01T02:09:27.244Z,24.07
2019-04-01T02:13:29.158Z,18.70
2019-04-01T02:17:31.060Z,26.83
2019-04-01T02:21:33.034Z,25.10
2019-04-01T02:25:34.948Z,23.53
2019-04-01T02:29:36.867Z,24.33
2019-04-01T02:33:38.880Z,22.35
2019-04-01T02:37:40.786Z,25.50
2019-04-01T02:41:42.681Z,22.30
2019-04-01T02:45:44.585Z,17.23
2019-04-01T02:49:46.491Z,22.40
2019-04-01T02:53:48.499Z,22.43
2019-04-01T02:57:50.404Z,16.03
2019-04-01T03:01:52.298Z,24.40
2019-04-01T03:05:54.206Z,22.87
2019-04-01T03:09:56.114Z,22.32
2019-04-01T03:13:58.022Z,20.08
2019-04-01T03:17:59.941Z,15.75
2019-04-01T03:22:01.831Z,13.13
2019-04-01T03:26:03.911Z,17.32
2019-04-01T03:30:07.481Z,17.80
2019-04-01T03:34:09.474Z,16.93
2019-04-01T03:38:11.361Z,18.07
2019-04-01T03:42:13.241Z,17.13
2019-04-01T03:46:15.158Z,18.97
2019-04-01T03:50:17.076Z,17.33
2019-04-01T03:54:19.017Z,12.97
2019-04-01T03:58:21.030Z,13.97
2019-04-01T04:02:22.999Z,13.73
2019-04-01T04:06:24.896Z,11.73
2019-04-01T04:10:26.821Z,13.07
2019-04-01T04:14:28.830Z,12.43
2019-04-01T04:18:30.728Z,17.67
2019-04-01T04:22:32.771Z,17.23
2019-04-01T04:26:34.683Z,12.07
2019-04-01T04:30:37.669Z,11.45
2019-04-01T04:34:39.587Z,12.03
2019-04-01T04:38:41.488Z,14.37
2019-04-01T04:42:43.384Z,11.40
2019-04-01T04:46:45.289Z,14.80
2019-04-01T04:50:47.192Z,15.77
2019-04-01T04:54:50.081Z,17.73
2019-04-01T04:58:51.998Z,12.77
2019-04-01T05:02:53.904Z,9.10
2019-04-01T05:06:55.823Z,10.78
2019-04-01T05:10:57.730Z,9.85
2019-04-01T05:14:59.634Z,15.15
2019-04-01T05:19:01.534Z,16.40
2019-04-01T05:23:04.556Z,15.45
2019-04-01T05:27:09.665Z,11.40
2019-04-01T05:31:15.115Z,8.37
2019-04-01T05:35:17.111Z,13.17
2019-04-01T05:39:20.003Z,15.03
2019-04-01T05:43:22.057Z,14.13
2019-04-01T05:47:25.791Z,15.40
2019-04-01T05:51:28.461Z,10.45
2019-04-01T05:55:30.726Z,9.30
2019-04-01T05:59:32.621Z,11.20
2019-04-01T06:03:35.071Z,14.50
2019-04-01T06:07:37.111Z,13.60
2019-04-01T06:11:39.153Z,12.30
2019-04-01T06:15:41.060Z,12.60
2019-04-01T06:19:42.954Z,11.20
2019-04-01T06:23:44.867Z,10.53
2019-04-01T06:27:46.777Z,10.30
2019-04-01T06:31:48.685Z,9.30
2019-04-01T06:35:51.705Z,9.02
2019-04-01T06:39:53.601Z,8.57
2019-04-01T06:43:55.502Z,8.53
2019-04-01T06:47:57.404Z,8.38
2019-04-01T06:51:59.370Z,8.63
2019-04-01T06:56:01.677Z,8.58
2019-04-01T07:00:06.332Z,8.75
2019-04-01T07:04:08.238Z,9.27
2019-04-01T07:08:11.206Z,9.47
2019-04-01T07:12:13.175Z,9.87
2019-04-01T07:16:16.209Z,9.03
2019-04-01T07:20:18.167Z,9.70
2019-04-01T07:24:20.070Z,10.70
2019-04-01T07:28:21.983Z,10.17
2019-04-01T07:32:23.886Z,9.67
2019-04-01T07:36:25.788Z,10.20
2019-04-01T07:40:28.022Z,9.90
2019-04-01T07:44:30.006Z,9.97
2019-04-01T07:48:32.228Z,10.37
2019-04-01T07:52:34.141Z,10.30
2019-04-01T07:56:36.044Z,11.60
2019-04-01T08:00:38.050Z,12.77
2019-04-01T08:04:39.978Z,12.53
2019-04-01T08:08:46.049Z,11.90
2019-04-01T08:12:45.940Z,11.47
2019-04-01T08:16:47.938Z,12.13
2019-04-01T08:20:49.868Z,12.57
2019-04-01T08:24:51.997Z,12.58
2019-04-01T08:28:53.940Z,13.15
2019-04-01T08:32:55.966Z,11.48
2019-04-01T08:36:58.013Z,13.10
2019-04-01T08:41:18.687Z,12.55
2019-04-01T08:45:20.856Z,11.77
2019-04-01T08:49:22.778Z,13.03
2019-04-01T08:53:24.854Z,13.30
2019-04-01T08:57:27.730Z,12.10
2019-04-01T09:01:35.348Z,12.77
2019-04-01T09:05:34.192Z,12.63
2019-04-01T09:09:37.240Z,11.80
2019-04-01T09:13:39.397Z,11.80
2019-04-01T09:17:41.490Z,12.17
2019-04-01T09:21:43.400Z,13.97
2019-04-01T09:25:45.325Z,12.57
2019-04-01T09:29:47.253Z,12.67
2019-04-01T09:33:49.177Z,13.00
2019-04-01T09:37:51.821Z,13.97
2019-04-01T09:41:53.814Z,14.10
2019-04-01T09:45:55.775Z,13.90
2019-04-01T09:49:57.707Z,14.40
2019-04-01T09:53:59.631Z,13.22
2019-04-01T09:58:01.622Z,14.67
2019-04-01T10:02:03.707Z,13.55
2019-04-01T10:06:05.695Z,14.43
2019-04-01T10:10:08.498Z,14.30
2019-04-01T10:14:10.431Z,15.10
2019-04-01T10:18:12.355Z,15.47
2019-04-01T10:22:14.267Z,13.00
2019-04-01T10:26:16.188Z,15.70
2019-04-01T10:30:19.015Z,13.87
2019-04-01T10:34:20.951Z,16.17
2019-04-01T10:38:22.873Z,15.53
2019-04-01T10:42:24.780Z,16.40
2019-04-01T10:46:26.769Z,16.70
2019-04-01T10:50:29.661Z,15.80
2019-04-01T10:54:31.666Z,17.70
2019-04-01T10:58:33.647Z,16.87
2019-04-01T11:02:35.541Z,17.83
2019-04-01T11:06:37.615Z,17.77
2019-04-01T11:10:39.611Z,17.73
2019-04-01T11:14:41.571Z,17.60
2019-04-01T11:18:43.608Z,18.10
2019-04-01T11:22:45.550Z,19.23
2019-04-01T11:26:47.478Z,18.17
2019-04-01T11:30:49.508Z,17.93
2019-04-01T11:34:52.027Z,19.07
2019-04-01T11:38:54.074Z,18.77
2019-04-01T11:42:56.435Z,17.40
2019-04-01T11:46:58.432Z,17.77
2019-04-01T11:51:00.401Z,18.30
2019-04-01T11:55:04.750Z,18.93
2019-04-01T11:59:06.078Z,18.07
2019-04-01T12:03:08.007Z,18.87
2019-04-01T12:07:09.922Z,19.60
2019-04-01T12:11:11.843Z,18.10
2019-04-01T12:15:16.164Z,18.33
2019-04-01T12:19:18.324Z,19.30
2019-04-01T12:23:20.334Z,19.57
2019-04-01T12:27:22.251Z,21.13
2019-04-01T12:31:24.183Z,20.13
2019-04-01T12:35:26.120Z,20.43
2019-04-01T12:39:28.037Z,20.13
2019-04-01T12:43:29.943Z,19.13
2019-04-01T12:47:31.952Z,20.10
2019-04-01T12:51:33.875Z,19.20
2019-04-01T12:55:35.802Z,20.43
2019-04-01T12:59:37.718Z,21.30
2019-04-01T13:03:39.633Z,19.10
2019-04-01T13:07:41.556Z,21.43
2019-04-01T13:11:43.482Z,19.63
2019-04-01T13:15:45.587Z,18.70
2019-04-01T13:19:47.602Z,19.33
2019-04-01T13:23:49.524Z,18.57
2019-04-01T13:27:52.166Z,17.27
2019-04-01T13:31:55.060Z,19.53
2019-04-01T13:35:56.983Z,20.72
2019-04-01T13:40:02.235Z,19.50
2019-04-01T13:44:02.692Z,17.48
2019-04-01T13:48:04.639Z,19.50
2019-04-01T13:52:06.673Z,20.20
2019-04-01T13:56:10.427Z,17.62
2019-04-01T14:00:13.511Z,19.23
2019-04-01T14:04:15.441Z,17.87
2019-04-01T14:08:17.358Z,18.07
2019-04-01T14:12:19.294Z,17.07
2019-04-01T14:16:21.210Z,17.63
2019-04-01T14:20:23.141Z,17.83
2019-04-01T14:24:25.042Z,16.60
2019-04-01T14:28:26.963Z,19.83
2019-04-01T14:32:28.975Z,17.00
2019-04-01T14:36:30.899Z,18.17
2019-04-01T14:40:32.896Z,17.20
2019-04-01T14:44:35.842Z,16.93
2019-04-01T14:48:38.680Z,17.63
2019-04-01T14:52:41.402Z,17.17
2019-04-01T14:56:53.958Z,17.20
2019-04-01T15:00:55.937Z,16.07
2019-04-01T15:04:57.850Z,16.37
2019-04-01T15:08:59.777Z,16.82
2019-04-01T15:13:05.671Z,15.97
2019-04-01T15:17:05.426Z,15.55
2019-04-01T15:21:07.532Z,15.32
2019-04-01T15:25:09.747Z,16.17
2019-04-01T15:29:11.679Z,15.60
2019-04-01T15:33:13.630Z,15.27
2019-04-01T15:37:15.557Z,14.17
2019-04-01T15:41:17.484Z,14.93
2019-04-01T15:45:19.423Z,14.27
2019-04-01T15:49:21.359Z,15.13
2019-04-01T15:53:23.638Z,15.77
2019-04-01T15:57:26.334Z,13.53
2019-04-01T16:01:30.113Z,16.57
2019-04-01T16:05:32.149Z,14.97
2019-04-01T16:09:34.057Z,14.90
2019-04-01T16:13:35.996Z,14.60
2019-04-01T16:17:37.911Z,14.87
2019-04-01T16:21:39.815Z,15.33
2019-04-01T16:25:41.735Z,15.30
2019-04-01T16:29:43.795Z,13.87
2019-04-01T16:33:45.712Z,14.13
2019-04-01T16:37:47.657Z,14.97
2019-04-01T16:41:50.580Z,12.87
2019-04-01T16:45:55.850Z,14.00
2019-04-01T16:49:56.207Z,13.70
2019-04-01T16:53:58.127Z,14.70
2019-04-01T16:58:00.119Z,14.27
2019-04-01T17:02:02.051Z,13.05
2019-04-01T17:06:04.555Z,14.20
2019-04-01T17:10:07.696Z,13.73
2019-04-01T17:14:09.669Z,12.82
2019-04-01T17:18:11.680Z,10.67
2019-04-01T17:22:13.599Z,12.10
2019-04-01T17:26:15.522Z,10.67
2019-04-01T17:30:17.955Z,11.83
2019-04-01T17:34:19.855Z,13.03
2019-04-01T17:38:21.857Z,12.83
2019-04-01T17:42:23.775Z,10.43
2019-04-01T17:46:26.755Z,14.33
2019-04-01T17:50:29.209Z,13.43
2019-04-01T17:54:31.456Z,10.57
2019-04-01T17:58:33.502Z,11.63
2019-04-01T18:02:36.119Z,14.00
2019-04-01T18:06:38.755Z,12.30
2019-04-01T18:10:40.729Z,12.33
2019-04-01T18:14:42.643Z,13.00
2019-04-01T18:18:44.567Z,12.07
2019-04-01T18:22:46.564Z,12.67
2019-04-01T18:26:48.471Z,11.73
2019-04-01T18:30:50.405Z,10.87
2019-04-01T18:34:52.329Z,10.07
2019-04-01T18:38:54.403Z,10.10
2019-04-01T18:42:57.078Z,11.60
2019-04-01T18:46:59.003Z,8.73
2019-04-01T18:51:01.502Z,9.78
2019-04-01T18:55:03.889Z,11.00
2019-04-01T18:59:05.884Z,10.85
2019-04-01T19:03:07.790Z,10.00
2019-04-01T19:07:09.720Z,10.00
2019-04-01T19:11:11.681Z,10.53
2019-04-01T19:15:13.786Z,9.50
2019-04-01T19:19:15.681Z,8.53
2019-04-01T19:23:17.597Z,8.20
2019-04-01T19:27:19.509Z,8.77
2019-04-01T19:31:21.412Z,10.53
2019-04-01T19:35:23.425Z,8.83
2019-04-01T19:39:25.311Z,8.47
2019-04-01T19:43:27.221Z,8.87
2019-04-01T19:47:29.245Z,9.67
2019-04-01T19:51:31.150Z,8.50
2019-04-01T19:55:34.141Z,8.63
2019-04-01T19:59:36.278Z,8.60
2019-04-01T20:03:38.237Z,8.63
2019-04-01T20:07:40.145Z,8.07
2019-04-01T20:11:42.046Z,9.83
2019-04-01T20:15:44.061Z,8.13
2019-04-01T20:19:45.954Z,8.93
2019-04-01T20:23:47.923Z,8.33
2019-04-01T20:27:49.823Z,6.90
2019-04-01T20:31:52.335Z,7.13
2019-04-01T20:35:54.240Z,7.67
2019-04-01T20:39:56.153Z,6.70
2019-04-01T20:43:58.104Z,7.15
2019-04-01T20:48:00.129Z,8.15
2019-04-01T20:52:01.996Z,6.97
2019-04-01T20:56:03.964Z,7.60
2019-04-01T21:00:09.462Z,6.30
2019-04-01T21:04:12.838Z,5.80
2019-04-01T21:08:15.343Z,5.73
2019-04-01T21:12:18.231Z,6.25
2019-04-01T21:16:20.139Z,6.03
2019-04-01T21:20:22.040Z,7.13
2019-04-01T21:24:23.956Z,5.07
2019-04-01T21:28:25.856Z,6.10
2019-04-01T21:32:27.762Z,7.60
2019-04-01T21:36:29.648Z,6.80
2019-04-01T21:40:31.571Z,6.00
2019-04-01T21:44:33.541Z,6.37
2019-04-01T21:48:36.427Z,5.50
2019-04-01T21:52:38.315Z,6.77
2019-04-01T21:56:40.219Z,7.90
2019-04-01T22:00:46.219Z,5.80
2019-04-01T22:04:48.185Z,5.17
2019-04-01T22:08:50.093Z,5.10
2019-04-01T22:12:52.768Z,5.55
2019-04-01T22:16:54.635Z,6.00
2019-04-01T22:20:57.564Z,6.77
2019-04-01T22:25:00.229Z,6.97
2019-04-01T22:29:03.069Z,6.20
2019-04-01T22:33:04.970Z,6.87
2019-04-01T22:37:08.118Z,4.80
2019-04-01T22:41:10.063Z,5.92
2019-04-01T22:45:12.036Z,7.57
2019-04-01T22:49:13.940Z,6.20
2019-04-01T22:53:15.822Z,4.73
2019-04-01T22:57:17.725Z,6.07
2019-04-01T23:01:19.625Z,5.70
2019-04-01T23:05:21.530Z,6.40
2019-04-01T23:09:23.491Z,4.53
2019-04-01T23:13:25.393Z,4.67
2019-04-01T23:17:27.299Z,5.43
2019-04-01T23:21:31.090Z,4.03
2019-04-01T23:25:32.806Z,5.10
2019-04-01T23:29:34.728Z,5.63
2019-04-01T23:33:36.648Z,4.60
2019-04-01T23:37:38.726Z,5.25
2019-04-01T23:41:40.634Z,5.83
2019-04-01T23:45:42.540Z,4.33
2019-04-01T23:49:44.443Z,4.60
2019-04-01T23:53:46.330Z,4.20
2019-04-01T23:57:48.233Z,4.67
